Accomac, VA

2:06 AM EDT on November 01, 2014 (GMT -0400)
VADOT Tasley | Change Station
CLOSE
Current Station
Personal Weather Station
Location: Accomac, VA
Elevation: 59 ft
Nearby Weather Stations

Elev 59 ft 37.70 °N, 75.71 °W | Updated 59 minutes ago

Overcast
Overcast
52 °F
Feels Like 52 °F
N
6
Wind Variable Wind from NNW
Gusts 9.0 mph

Today
High -- | Low -- °F
--% Chance of Precip.
Yesterday
High -- | Low -- °F
Precip. -- in
7:27 AM 6:04 PM
Waxing Gibbous, 63% visible
Pressure 29.71 in
Visibility 10.0 miles
Clouds Mostly Cloudy 2400 ft
Mostly Cloudy 4900 ft
Mostly Cloudy 8000 ft
Dew Point 46 °F
Humidity 81%
Rainfall 0.00 in
Snow Depth Not available.
UV 0 out of 12
Pollen .90 out of 12
Air Quality Not available.
Flu Activity Not available.
METAR KMFV 010555Z AUTO 34005KT 10SM BKN024 BKN049 BKN080 10/06 A2971 RMK AO2

More Conditions Fewer Conditions

Pressure 29.71 in
Visibility 10.0 miles
Clouds Mostly Cloudy 2400 ft
Mostly Cloudy 4900 ft
Mostly Cloudy 8000 ft
Dew Point 46 °F
Humidity 81%
Rainfall 0.00 in
Snow Depth Not available.
UV 0 out of 12
Pollen .90 out of 12
Air Quality Not available.
Flu Activity Not available.
METAR KMFV 010555Z AUTO 34005KT 10SM BKN024 BKN049 BKN080 10/06 A2971 RMK AO2

More Conditions Fewer Conditions

10-Day Weather Forecast

Almanac

Astronomy

Nov. 01, 2014 Rise Set
Actual Time
Civil Twilight
Nautical Twilight
Astronomical Twilight
Moon
Length of Visible Light
Length of Day
Tomorrow will be .
, % of the Moon is Illuminated

Today's Extremes

State Highs State Lows

Community

WunderPhotos

Upload Photos

1,766,862 photos uploaded!

WunderBlogs® & News

Nearby

Air Quality

  Air Quality AQ Index Pollutant
Not available.

Snow Depth

Station Depth Elevation

Earthquake Activity

City Distance Mag. Time & Date
Minimum magnitude displayed is 2.5.

Coastal Water Temperatures

Place Temperature

Nearby Weather Stations